createdAt,value
2023-02-19T00:01:35.853Z,2.50
2023-02-19T00:04:06.617Z,2.90
2023-02-19T00:06:34.393Z,2.30
2023-02-19T00:09:01.044Z,2.90
2023-02-19T00:11:30.656Z,2.80
2023-02-19T00:13:59.007Z,2.90
2023-02-19T00:16:28.104Z,2.70
2023-02-19T00:18:57.292Z,3.80
2023-02-19T00:21:24.677Z,3.30
2023-02-19T00:23:53.055Z,3.20
2023-02-19T00:26:20.611Z,3.30
2023-02-19T00:28:50.144Z,2.00
2023-02-19T00:31:17.595Z,1.90
2023-02-19T00:33:45.725Z,2.20
2023-02-19T00:36:14.071Z,1.70
2023-02-19T00:38:41.830Z,2.10
2023-02-19T00:41:18.548Z,1.80
2023-02-19T00:43:46.323Z,1.80
2023-02-19T00:46:15.413Z,1.90
2023-02-19T00:48:42.032Z,1.90
2023-02-19T00:51:08.921Z,2.70
2023-02-19T00:53:36.251Z,2.40
2023-02-19T00:56:03.811Z,4.30
2023-02-19T00:58:30.512Z,6.50
2023-02-19T01:00:57.658Z,7.40
2023-02-19T01:03:24.537Z,3.40
2023-02-19T01:05:52.233Z,3.30
2023-02-19T01:08:18.875Z,4.90
2023-02-19T01:10:45.784Z,2.90
2023-02-19T01:13:12.507Z,6.80
2023-02-19T01:15:39.180Z,3.00
2023-02-19T01:18:06.030Z,5.10
2023-02-19T01:20:33.559Z,2.70
2023-02-19T01:23:00.410Z,3.90
2023-02-19T01:25:27.121Z,2.80
2023-02-19T01:27:53.666Z,3.00
2023-02-19T01:30:20.261Z,2.90
2023-02-19T01:32:46.848Z,3.00
2023-02-19T01:35:13.546Z,3.30
2023-02-19T01:37:40.295Z,2.40
2023-02-19T01:40:07.956Z,2.40
2023-02-19T01:42:34.616Z,3.30
2023-02-19T01:45:23.213Z,3.40
2023-02-19T01:47:57.237Z,3.20
2023-02-19T01:50:27.747Z,3.30
2023-02-19T01:52:54.992Z,3.30
2023-02-19T01:55:21.943Z,3.40
2023-02-19T01:57:53.357Z,3.80
2023-02-19T02:00:20.071Z,3.90
2023-02-19T02:02:50.817Z,3.30
2023-02-19T02:05:46.598Z,3.80
2023-02-19T02:08:33.142Z,5.70
2023-02-19T02:13:27.546Z,5.00
2023-02-19T02:16:20.619Z,3.20
2023-02-19T02:19:01.041Z,4.60
2023-02-19T02:22:00.966Z,3.30
2023-02-19T02:24:46.920Z,2.90
2023-02-19T02:27:26.820Z,3.90
2023-02-19T02:30:16.310Z,3.80
2023-02-19T02:32:53.873Z,3.40
2023-02-19T02:35:29.891Z,3.60
2023-02-19T02:38:03.544Z,3.80
2023-02-19T02:40:31.227Z,3.60
2023-02-19T02:42:59.812Z,3.40
2023-02-19T02:45:34.934Z,3.30
2023-02-19T02:48:17.549Z,3.30
2023-02-19T02:50:59.529Z,3.30
2023-02-19T02:54:09.314Z,3.70
2023-02-19T02:56:37.014Z,3.60
2023-02-19T02:59:08.100Z,3.20
2023-02-19T03:01:55.923Z,2.80
2023-02-19T03:04:37.309Z,3.50
2023-02-19T03:07:08.900Z,2.00
2023-02-19T03:09:42.463Z,2.70
2023-02-19T03:12:32.925Z,2.40
2023-02-19T03:15:23.195Z,2.50
2023-02-19T03:18:18.892Z,2.60
2023-02-19T03:20:50.092Z,3.00
2023-02-19T03:23:19.383Z,2.70
2023-02-19T03:26:05.337Z,2.90
2023-02-19T03:28:58.902Z,4.20
2023-02-19T03:31:29.524Z,3.10
2023-02-19T03:34:02.857Z,3.30
2023-02-19T03:36:51.925Z,3.40
2023-02-19T03:39:21.912Z,2.70
2023-02-19T03:41:55.028Z,2.80
2023-02-19T03:44:32.226Z,2.90
2023-02-19T03:47:03.034Z,3.20
2023-02-19T03:49:36.464Z,3.30
2023-02-19T03:52:16.528Z,3.30
2023-02-19T03:54:56.614Z,2.80
2023-02-19T03:57:49.689Z,2.70
2023-02-19T04:00:22.576Z,3.50
2023-02-19T04:03:09.552Z,3.20
2023-02-19T04:05:42.388Z,2.50
2023-02-19T04:08:15.288Z,2.50
2023-02-19T04:10:48.802Z,2.50
2023-02-19T04:13:27.270Z,2.50
2023-02-19T04:16:00.327Z,2.70
2023-02-19T04:18:32.194Z,2.60
2023-02-19T04:20:59.808Z,2.10
2023-02-19T04:23:30.109Z,2.20
2023-02-19T04:26:00.708Z,2.40
2023-02-19T04:28:28.469Z,2.20
2023-02-19T04:30:55.048Z,2.30
2023-02-19T04:33:21.689Z,2.20
2023-02-19T04:35:48.214Z,2.90
2023-02-19T04:38:15.010Z,2.40
2023-02-19T04:40:41.742Z,2.50
2023-02-19T04:43:08.347Z,2.30
2023-02-19T04:45:37.285Z,2.60
2023-02-19T04:48:04.580Z,2.40
2023-02-19T04:50:31.385Z,1.90
2023-02-19T04:52:58.048Z,2.40
2023-02-19T04:55:24.711Z,2.20
2023-02-19T04:57:51.250Z,2.20
2023-02-19T05:00:17.884Z,3.50
2023-02-19T05:02:44.436Z,2.60
2023-02-19T05:05:11.055Z,2.40
2023-02-19T05:07:37.613Z,2.20
2023-02-19T05:10:04.569Z,2.10
2023-02-19T05:12:31.395Z,2.30
2023-02-19T05:14:57.957Z,1.90
2023-02-19T05:17:24.655Z,2.10
2023-02-19T05:19:51.294Z,2.10
2023-02-19T05:22:18.225Z,1.70
2023-02-19T05:24:45.438Z,1.70
2023-02-19T05:27:11.984Z,1.60
2023-02-19T05:29:38.560Z,1.60
2023-02-19T05:32:05.289Z,1.60
2023-02-19T05:34:32.022Z,1.10
2023-02-19T05:36:58.820Z,1.20
2023-02-19T05:39:25.364Z,1.00
2023-02-19T05:41:52.042Z,1.40
2023-02-19T05:44:18.636Z,1.40
2023-02-19T05:46:45.270Z,1.80
2023-02-19T05:49:12.075Z,1.90
2023-02-19T05:51:38.642Z,1.80
2023-02-19T05:54:05.525Z,1.90
2023-02-19T05:56:40.604Z,2.10
2023-02-19T05:59:19.548Z,1.90
2023-02-19T06:01:47.251Z,2.00
2023-02-19T06:04:15.183Z,2.90
2023-02-19T06:06:42.356Z,2.60
2023-02-19T06:09:10.053Z,2.50
2023-02-19T06:11:37.550Z,3.00
2023-02-19T06:14:05.798Z,3.10
2023-02-19T06:16:33.796Z,3.40
2023-02-19T06:19:03.995Z,2.60
2023-02-19T06:21:31.077Z,3.20
2023-02-19T06:23:57.645Z,3.60
2023-02-19T06:26:25.392Z,3.60
2023-02-19T06:28:53.073Z,3.90
2023-02-19T06:31:21.358Z,3.40
2023-02-19T06:33:50.000Z,3.70
2023-02-19T06:36:18.675Z,3.60
2023-02-19T06:38:45.384Z,3.60
2023-02-19T06:41:12.953Z,3.50
2023-02-19T06:43:40.321Z,3.20
2023-02-19T06:46:08.070Z,2.50
2023-02-19T06:48:35.040Z,3.00
2023-02-19T06:51:02.185Z,2.50
2023-02-19T06:53:29.049Z,3.10
2023-02-19T06:56:07.883Z,2.80
2023-02-19T06:58:34.926Z,3.30
2023-02-19T07:01:01.574Z,3.20
2023-02-19T07:03:28.394Z,2.30
2023-02-19T07:05:55.043Z,2.50
2023-02-19T07:08:21.733Z,2.00
2023-02-19T07:10:56.861Z,2.20
2023-02-19T07:13:26.072Z,2.00
2023-02-19T07:15:59.573Z,3.80
2023-02-19T07:18:26.242Z,2.00
2023-02-19T07:20:53.553Z,2.40
2023-02-19T07:23:20.395Z,2.00
2023-02-19T07:25:47.137Z,2.90
2023-02-19T07:28:13.873Z,2.70
2023-02-19T07:30:40.882Z,2.70
2023-02-19T07:33:10.390Z,3.20
2023-02-19T07:35:37.128Z,2.90
2023-02-19T07:38:03.807Z,3.40
2023-02-19T07:40:30.328Z,3.40
2023-02-19T07:42:59.758Z,3.80
2023-02-19T07:45:26.586Z,4.00
2023-02-19T07:47:53.385Z,4.90
2023-02-19T07:50:19.964Z,5.40
2023-02-19T07:52:46.791Z,5.80
2023-02-19T07:55:13.630Z,4.90
2023-02-19T07:57:41.060Z,5.10
2023-02-19T08:00:08.257Z,7.50
2023-02-19T08:02:57.840Z,5.60
2023-02-19T08:05:24.676Z,6.20
2023-02-19T08:07:51.302Z,6.30
2023-02-19T08:10:36.775Z,6.10
2023-02-19T08:13:18.777Z,6.40
2023-02-19T08:15:46.557Z,7.20
2023-02-19T08:18:14.452Z,7.30
2023-02-19T08:20:41.563Z,8.50
2023-02-19T08:23:08.983Z,7.80
2023-02-19T08:25:36.348Z,7.00
2023-02-19T08:28:04.091Z,7.80
2023-02-19T08:30:32.678Z,6.70
2023-02-19T08:33:02.275Z,6.70
2023-02-19T08:35:29.201Z,6.70
2023-02-19T08:37:57.364Z,6.00
2023-02-19T08:40:26.905Z,5.80
2023-02-19T08:42:54.610Z,6.10
2023-02-19T08:45:23.574Z,5.40
2023-02-19T08:47:50.234Z,5.30
2023-02-19T08:50:16.858Z,4.30
2023-02-19T08:52:43.495Z,3.70
2023-02-19T08:55:10.046Z,3.30
2023-02-19T08:57:37.096Z,3.60
2023-02-19T09:00:08.693Z,4.00
2023-02-19T09:02:37.230Z,2.80
2023-02-19T09:05:05.095Z,2.60
2023-02-19T09:07:32.258Z,2.60
2023-02-19T09:10:00.205Z,2.30
2023-02-19T09:12:26.912Z,3.00
2023-02-19T09:14:54.929Z,6.20
2023-02-19T09:17:22.137Z,3.90
2023-02-19T09:19:50.804Z,3.50
2023-02-19T09:22:17.530Z,4.70
2023-02-19T09:24:44.716Z,4.70
2023-02-19T09:27:19.448Z,5.80
2023-02-19T09:29:46.793Z,9.40
2023-02-19T09:32:14.020Z,5.80
2023-02-19T09:34:41.195Z,5.30
2023-02-19T09:37:08.136Z,4.60
2023-02-19T09:39:34.959Z,2.70
2023-02-19T09:42:14.869Z,3.50
2023-02-19T09:44:45.583Z,1.80
2023-02-19T09:47:25.266Z,2.70
2023-02-19T09:49:55.569Z,1.80
2023-02-19T09:52:24.949Z,3.10
2023-02-19T09:54:58.630Z,1.60
2023-02-19T09:57:29.304Z,2.70
2023-02-19T10:00:13.641Z,2.40
2023-02-19T10:02:40.234Z,4.70
2023-02-19T10:05:13.649Z,8.10
2023-02-19T10:07:47.278Z,7.80
2023-02-19T10:10:13.842Z,37.60
2023-02-19T10:12:46.682Z,36.90
2023-02-19T10:15:29.094Z,9.80
2023-02-19T10:17:56.043Z,4.40
2023-02-19T10:20:26.080Z,5.70
2023-02-19T10:23:03.302Z,4.10
2023-02-19T10:25:31.339Z,3.00
2023-02-19T10:27:59.308Z,5.70
2023-02-19T10:30:30.946Z,21.90
2023-02-19T10:33:18.769Z,5.30
2023-02-19T10:36:01.699Z,3.20
2023-02-19T10:38:38.508Z,4.40
2023-02-19T10:41:17.266Z,2.80
2023-02-19T10:43:55.461Z,2.60
2023-02-19T10:46:28.897Z,2.50
2023-02-19T10:48:58.917Z,3.30
2023-02-19T10:54:04.981Z,2.30
2023-02-19T10:56:33.122Z,3.90
2023-02-19T10:59:26.040Z,18.70
2023-02-19T11:01:59.924Z,2.20
2023-02-19T11:04:33.281Z,3.10
2023-02-19T11:07:10.967Z,4.20
2023-02-19T11:09:39.946Z,2.50
2023-02-19T11:12:08.503Z,3.10
2023-02-19T11:14:36.630Z,3.60
2023-02-19T11:17:05.041Z,5.10
2023-02-19T11:19:39.474Z,2.40
2023-02-19T11:22:41.377Z,2.60
2023-02-19T11:25:14.106Z,8.40
2023-02-19T11:28:06.624Z,6.60
2023-02-19T11:30:35.882Z,10.50
2023-02-19T11:33:24.026Z,5.40
2023-02-19T11:35:57.076Z,8.80
2023-02-19T11:38:23.628Z,3.10
2023-02-19T11:40:56.358Z,3.80
2023-02-19T11:43:25.958Z,3.80
2023-02-19T11:46:22.090Z,2.80
2023-02-19T11:48:57.812Z,7.40
2023-02-19T11:51:33.730Z,6.70
2023-02-19T11:56:36.522Z,4.20
2023-02-19T11:59:09.190Z,7.90
2023-02-19T12:01:50.810Z,9.80
2023-02-19T12:04:39.224Z,7.20
2023-02-19T12:07:32.326Z,9.30
2023-02-19T12:10:01.762Z,5.50
2023-02-19T12:12:50.834Z,4.00
2023-02-19T12:15:39.132Z,5.60
2023-02-19T12:18:25.669Z,8.60
2023-02-19T12:24:28.818Z,7.80
2023-02-19T12:27:24.269Z,9.40
2023-02-19T12:29:56.418Z,8.30
2023-02-19T12:32:29.343Z,8.00
2023-02-19T12:35:24.714Z,6.90
2023-02-19T12:38:02.075Z,6.30
2023-02-19T12:41:04.402Z,6.20
2023-02-19T12:43:33.605Z,6.50
2023-02-19T12:46:06.340Z,6.20
2023-02-19T12:48:39.014Z,6.10
2023-02-19T12:51:15.643Z,5.10
2023-02-19T12:53:52.048Z,5.90
2023-02-19T12:56:24.609Z,4.90
2023-02-19T12:59:19.958Z,3.70
2023-02-19T13:02:00.013Z,5.30
2023-02-19T13:04:42.734Z,4.60
2023-02-19T13:07:12.128Z,5.00
2023-02-19T13:10:10.951Z,6.80
2023-02-19T13:12:42.466Z,4.70
2023-02-19T13:15:34.206Z,4.00
2023-02-19T13:18:04.729Z,4.20
2023-02-19T13:20:38.642Z,4.10
2023-02-19T13:23:48.592Z,4.80
2023-02-19T13:26:36.435Z,4.10
2023-02-19T13:29:35.158Z,4.90
2023-02-19T13:32:23.471Z,4.30
2023-02-19T13:35:11.430Z,3.70
2023-02-19T13:37:39.148Z,3.60
2023-02-19T13:40:18.288Z,3.20
2023-02-19T13:42:53.336Z,4.50
2023-02-19T13:45:40.856Z,4.20
2023-02-19T13:48:28.448Z,4.60
2023-02-19T13:51:33.786Z,4.20
2023-02-19T13:54:12.513Z,4.30
2023-02-19T13:56:40.479Z,4.10
2023-02-19T13:59:10.245Z,4.10
2023-02-19T14:01:52.163Z,4.90
2023-02-19T14:04:20.589Z,4.50
2023-02-19T14:07:02.368Z,6.10
2023-02-19T14:09:43.192Z,3.40
2023-02-19T14:12:09.744Z,4.70
2023-02-19T14:14:49.680Z,5.50
2023-02-19T14:17:32.902Z,5.30
2023-02-19T14:19:59.598Z,3.30
2023-02-19T14:22:44.729Z,4.00
2023-02-19T14:25:26.480Z,4.60
2023-02-19T14:28:11.593Z,5.20
2023-02-19T14:30:55.157Z,10.60
2023-02-19T14:33:25.075Z,5.40
2023-02-19T14:36:02.885Z,7.80
2023-02-19T14:38:35.979Z,5.40
2023-02-19T14:41:04.283Z,5.80
2023-02-19T14:43:33.227Z,5.30
2023-02-19T14:46:08.445Z,7.70
2023-02-19T14:48:39.108Z,8.70
2023-02-19T14:51:31.955Z,5.80
2023-02-19T14:54:04.976Z,10.20
2023-02-19T14:56:34.367Z,7.30
2023-02-19T14:59:12.873Z,11.60
2023-02-19T15:01:39.805Z,6.80
2023-02-19T15:04:21.585Z,9.00
2023-02-19T15:06:49.003Z,8.90
2023-02-19T15:09:16.213Z,11.40
2023-02-19T15:11:43.331Z,10.80
2023-02-19T15:14:22.266Z,10.10
2023-02-19T15:16:57.604Z,9.40
2023-02-19T15:19:24.448Z,9.00
2023-02-19T15:21:51.664Z,15.20
2023-02-19T15:24:18.855Z,9.80
2023-02-19T15:26:53.654Z,8.20
2023-02-19T15:29:24.155Z,8.10
2023-02-19T15:31:59.339Z,7.50
2023-02-19T15:34:28.262Z,9.50
2023-02-19T15:37:00.415Z,11.60
2023-02-19T15:39:36.237Z,9.50
2023-02-19T15:42:05.312Z,9.80
2023-02-19T15:44:41.755Z,8.50
2023-02-19T15:47:23.931Z,7.50
2023-02-19T15:49:57.707Z,7.00
2023-02-19T15:52:31.108Z,9.10
2023-02-19T15:55:35.293Z,11.20
2023-02-19T15:58:18.285Z,10.70
2023-02-19T16:00:53.485Z,8.30
2023-02-19T16:03:23.479Z,9.20
2023-02-19T16:06:10.798Z,10.90
2023-02-19T16:09:03.080Z,9.50
2023-02-19T16:11:36.326Z,12.90
2023-02-19T16:14:28.567Z,11.00
2023-02-19T16:16:59.861Z,15.00
2023-02-19T16:19:42.888Z,11.50
2023-02-19T16:22:21.343Z,20.60
2023-02-19T16:24:57.227Z,10.60
2023-02-19T16:27:39.796Z,12.60
2023-02-19T16:30:27.859Z,8.60
2023-02-19T16:33:37.396Z,10.00
2023-02-19T16:36:19.131Z,15.80
2023-02-19T16:39:07.644Z,8.90
2023-02-19T16:42:10.160Z,12.50
2023-02-19T16:44:36.923Z,12.60
2023-02-19T16:47:14.754Z,13.40
2023-02-19T16:49:42.147Z,16.50
2023-02-19T16:52:13.987Z,16.00
2023-02-19T16:54:40.898Z,12.40
2023-02-19T16:57:07.527Z,19.10
2023-02-19T16:59:34.183Z,15.10
2023-02-19T17:02:04.345Z,17.60
2023-02-19T17:04:31.220Z,15.40
2023-02-19T17:06:57.923Z,15.30
2023-02-19T17:09:24.594Z,9.20
2023-02-19T17:11:51.340Z,10.10
2023-02-19T17:14:18.701Z,20.90
2023-02-19T17:16:47.378Z,10.10
2023-02-19T17:19:23.630Z,10.30
2023-02-19T17:21:50.386Z,11.10
2023-02-19T17:24:17.087Z,11.50
2023-02-19T17:26:43.668Z,9.60
2023-02-19T17:29:13.347Z,13.80
2023-02-19T17:31:40.482Z,9.40
2023-02-19T17:34:07.649Z,9.10
2023-02-19T17:36:34.389Z,9.00
2023-02-19T17:39:02.454Z,14.00
2023-02-19T17:41:29.323Z,13.20
2023-02-19T17:43:56.141Z,13.30
2023-02-19T17:46:25.659Z,12.90
2023-02-19T17:48:53.326Z,11.80
2023-02-19T17:51:20.672Z,15.40
2023-02-19T17:53:47.528Z,16.70
2023-02-19T17:56:25.041Z,17.10
2023-02-19T17:58:52.089Z,15.40
2023-02-19T18:01:19.077Z,12.10
2023-02-19T18:03:46.011Z,17.70
2023-02-19T18:06:13.168Z,14.30
2023-02-19T18:08:46.344Z,19.00
2023-02-19T18:11:13.370Z,19.90
2023-02-19T18:13:40.192Z,24.70
2023-02-19T18:16:10.109Z,26.10
2023-02-19T18:18:39.836Z,27.20
2023-02-19T18:21:11.543Z,18.10
2023-02-19T18:23:38.750Z,21.60
2023-02-19T18:26:09.859Z,19.90
2023-02-19T18:28:38.036Z,22.90
2023-02-19T18:31:06.870Z,18.60
2023-02-19T18:33:34.595Z,27.00
2023-02-19T18:36:01.372Z,21.10
2023-02-19T18:38:27.957Z,19.30
2023-02-19T18:40:55.401Z,18.20
2023-02-19T18:43:23.080Z,17.80
2023-02-19T18:45:49.839Z,18.40
2023-02-19T18:48:16.513Z,23.60
2023-02-19T18:50:43.454Z,20.40
2023-02-19T18:53:11.040Z,18.80
2023-02-19T18:55:37.806Z,15.60
2023-02-19T18:58:04.392Z,21.60
2023-02-19T19:00:31.241Z,19.40
2023-02-19T19:02:59.042Z,27.10
2023-02-19T19:05:26.176Z,21.40
2023-02-19T19:07:54.776Z,22.60
2023-02-19T19:10:22.829Z,17.90
2023-02-19T19:12:49.527Z,16.20
2023-02-19T19:15:18.478Z,24.80
2023-02-19T19:17:46.952Z,17.70
2023-02-19T19:20:16.843Z,23.70
2023-02-19T19:22:44.388Z,17.70
2023-02-19T19:25:11.217Z,18.10
2023-02-19T19:27:38.005Z,18.00
2023-02-19T19:30:05.966Z,19.60
2023-02-19T19:32:32.813Z,19.50
2023-02-19T19:34:59.540Z,27.30
2023-02-19T19:37:28.665Z,30.10
2023-02-19T19:39:55.985Z,25.70
2023-02-19T19:42:23.857Z,27.90
2023-02-19T19:44:50.668Z,27.00
2023-02-19T19:47:18.387Z,26.80
2023-02-19T19:49:47.613Z,28.90
2023-02-19T19:52:14.708Z,28.10
2023-02-19T19:54:42.583Z,24.50
2023-02-19T19:57:09.740Z,18.20
2023-02-19T19:59:38.522Z,14.90
2023-02-19T20:02:06.566Z,18.40
2023-02-19T20:04:33.424Z,18.90
2023-02-19T20:07:01.125Z,22.90
2023-02-19T20:09:28.559Z,25.10
2023-02-19T20:11:55.953Z,16.30
2023-02-19T20:14:24.445Z,19.80
2023-02-19T20:16:52.664Z,22.00
2023-02-19T20:19:20.312Z,15.60
2023-02-19T20:21:49.056Z,19.70
2023-02-19T20:24:18.151Z,17.00
2023-02-19T20:26:44.852Z,17.60
2023-02-19T20:29:11.668Z,18.90
2023-02-19T20:31:38.885Z,23.70
2023-02-19T20:34:05.710Z,17.40
2023-02-19T20:36:32.444Z,12.90
2023-02-19T20:38:59.276Z,19.20
2023-02-19T20:41:26.088Z,16.70
2023-02-19T20:43:53.411Z,19.50
2023-02-19T20:46:20.404Z,19.30
2023-02-19T20:48:47.076Z,16.80
2023-02-19T20:51:13.890Z,20.40
2023-02-19T20:53:41.277Z,24.10
2023-02-19T20:56:08.205Z,15.70
2023-02-19T20:58:35.555Z,20.80
2023-02-19T21:01:02.419Z,17.40
2023-02-19T21:03:30.096Z,16.10
2023-02-19T21:05:56.740Z,17.50
2023-02-19T21:08:23.352Z,16.80
2023-02-19T21:10:50.060Z,15.80
2023-02-19T21:13:16.890Z,22.00
2023-02-19T21:15:48.870Z,18.30
2023-02-19T21:18:16.966Z,17.00
2023-02-19T21:20:43.648Z,24.50
2023-02-19T21:23:14.796Z,20.70
2023-02-19T21:25:41.628Z,16.30
2023-02-19T21:28:09.707Z,18.20
2023-02-19T21:30:39.161Z,22.90
2023-02-19T21:33:05.764Z,18.30
2023-02-19T21:35:32.647Z,15.80
2023-02-19T21:37:59.248Z,21.40
2023-02-19T21:40:27.477Z,17.90
2023-02-19T21:42:54.226Z,19.60
2023-02-19T21:45:20.880Z,21.50
2023-02-19T21:47:47.475Z,17.10
2023-02-19T21:50:14.014Z,18.10
2023-02-19T21:52:41.382Z,21.70
2023-02-19T21:55:07.969Z,18.90
2023-02-19T21:57:34.562Z,27.50
2023-02-19T22:00:01.192Z,22.70
2023-02-19T22:02:27.762Z,20.70
2023-02-19T22:04:54.660Z,22.30
2023-02-19T22:07:21.714Z,22.70
2023-02-19T22:09:49.881Z,23.00
2023-02-19T22:12:17.679Z,17.50
2023-02-19T22:14:45.083Z,31.50
2023-02-19T22:17:12.279Z,22.50
2023-02-19T22:19:40.819Z,31.40
2023-02-19T22:22:07.654Z,17.90
2023-02-19T22:24:36.899Z,28.80
2023-02-19T22:27:04.105Z,24.90
2023-02-19T22:29:33.537Z,21.30
2023-02-19T22:32:00.297Z,25.60
2023-02-19T22:34:27.735Z,20.70
2023-02-19T22:36:54.369Z,24.50
2023-02-19T22:39:26.119Z,21.60
2023-02-19T22:41:53.495Z,21.60
2023-02-19T22:44:20.123Z,22.60
2023-02-19T22:46:55.556Z,23.30
2023-02-19T22:49:23.064Z,21.00
2023-02-19T22:54:12.049Z,21.20
2023-02-19T22:56:40.028Z,18.70
2023-02-19T22:59:07.989Z,18.40
2023-02-19T23:01:36.105Z,19.90
2023-02-19T23:04:04.275Z,19.00
2023-02-19T23:06:35.048Z,22.70
2023-02-19T23:09:11.053Z,20.40
2023-02-19T23:11:39.503Z,19.50
2023-02-19T23:14:07.963Z,22.70
2023-02-19T23:16:36.736Z,18.80
2023-02-19T23:19:06.563Z,24.00
2023-02-19T23:21:34.582Z,22.30
2023-02-19T23:24:02.633Z,23.20
2023-02-19T23:26:30.679Z,22.10
2023-02-19T23:28:58.621Z,21.30
2023-02-19T23:31:26.971Z,22.20
2023-02-19T23:33:55.392Z,18.00
2023-02-19T23:36:23.953Z,26.00
2023-02-19T23:38:52.081Z,16.80
2023-02-19T23:41:38.795Z,21.10
2023-02-19T23:46:34.570Z,24.70
2023-02-19T23:49:02.640Z,21.70
2023-02-19T23:51:30.569Z,15.00
2023-02-19T23:53:58.582Z,19.00
2023-02-19T23:56:28.644Z,21.00
2023-02-19T23:58:56.856Z,15.80
